sensor_id;sensor_type;location;lat;lon;timestamp;temperature;humidity
25945;SHT31;13742;49.306;8.636;2022-11-15T00:00:26;9.85;87.98
25945;SHT31;13742;49.306;8.636;2022-11-15T00:01:26;9.85;88.03
25945;SHT31;13742;49.306;8.636;2022-11-15T00:02:26;9.84;88.07
25945;SHT31;13742;49.306;8.636;2022-11-15T00:03:27;9.81;88.07
25945;SHT31;13742;49.306;8.636;2022-11-15T00:04:26;9.81;88.09
25945;SHT31;13742;49.306;8.636;2022-11-15T00:05:26;9.84;88.16
25945;SHT31;13742;49.306;8.636;2022-11-15T00:06:26;9.81;88.11
25945;SHT31;13742;49.306;8.636;2022-11-15T00:07:26;9.82;88.07
25945;SHT31;13742;49.306;8.636;2022-11-15T00:08:29;9.84;88.09
25945;SHT31;13742;49.306;8.636;2022-11-15T00:09:26;9.81;88.15
25945;SHT31;13742;49.306;8.636;2022-11-15T00:10:26;9.81;88.13
25945;SHT31;13742;49.306;8.636;2022-11-15T00:11:27;9.82;88.17
25945;SHT31;13742;49.306;8.636;2022-11-15T00:12:29;9.81;88.14
25945;SHT31;13742;49.306;8.636;2022-11-15T00:13:27;9.81;88.21
25945;SHT31;13742;49.306;8.636;2022-11-15T00:14:26;9.81;88.20
25945;SHT31;13742;49.306;8.636;2022-11-15T00:15:26;9.82;88.16
25945;SHT31;13742;49.306;8.636;2022-11-15T00:16:26;9.82;88.15
25945;SHT31;13742;49.306;8.636;2022-11-15T00:17:26;9.82;88.16
25945;SHT31;13742;49.306;8.636;2022-11-15T00:18:26;9.84;88.19
25945;SHT31;13742;49.306;8.636;2022-11-15T00:19:26;9.84;88.19
25945;SHT31;13742;49.306;8.636;2022-11-15T00:20:26;9.85;88.22
25945;SHT31;13742;49.306;8.636;2022-11-15T00:21:27;9.85;88.06
25945;SHT31;13742;49.306;8.636;2022-11-15T00:22:32;9.85;88.06
25945;SHT31;13742;49.306;8.636;2022-11-15T00:23:26;9.86;88.02
25945;SHT31;13742;49.306;8.636;2022-11-15T00:24:26;9.86;88.05
25945;SHT31;13742;49.306;8.636;2022-11-15T00:25:27;9.88;87.97
25945;SHT31;13742;49.306;8.636;2022-11-15T00:26:26;9.88;88.10
25945;SHT31;13742;49.306;8.636;2022-11-15T00:27:27;9.89;87.99
25945;SHT31;13742;49.306;8.636;2022-11-15T00:28:26;9.91;87.88
25945;SHT31;13742;49.306;8.636;2022-11-15T00:29:26;9.91;87.91
25945;SHT31;13742;49.306;8.636;2022-11-15T00:30:27;9.88;87.87
25945;SHT31;13742;49.306;8.636;2022-11-15T00:31:26;9.91;87.79
25945;SHT31;13742;49.306;8.636;2022-11-15T00:32:26;9.91;87.78
25945;SHT31;13742;49.306;8.636;2022-11-15T00:33:26;9.91;87.73
25945;SHT31;13742;49.306;8.636;2022-11-15T00:34:26;9.89;87.68
25945;SHT31;13742;49.306;8.636;2022-11-15T00:35:27;9.92;87.78
25945;SHT31;13742;49.306;8.636;2022-11-15T00:36:26;9.93;87.81
25945;SHT31;13742;49.306;8.636;2022-11-15T00:37:26;9.93;87.75
25945;SHT31;13742;49.306;8.636;2022-11-15T00:38:31;9.92;87.75
25945;SHT31;13742;49.306;8.636;2022-11-15T00:39:26;9.96;87.62
25945;SHT31;13742;49.306;8.636;2022-11-15T00:40:26;9.95;87.56
25945;SHT31;13742;49.306;8.636;2022-11-15T00:41:26;9.95;87.55
25945;SHT31;13742;49.306;8.636;2022-11-15T00:42:26;9.96;87.48
25945;SHT31;13742;49.306;8.636;2022-11-15T00:43:26;9.95;87.41
25945;SHT31;13742;49.306;8.636;2022-11-15T00:44:26;9.95;87.36
25945;SHT31;13742;49.306;8.636;2022-11-15T00:45:26;9.95;87.36
25945;SHT31;13742;49.306;8.636;2022-11-15T00:46:26;9.96;87.40
25945;SHT31;13742;49.306;8.636;2022-11-15T00:47:26;9.96;87.41
25945;SHT31;13742;49.306;8.636;2022-11-15T00:48:26;9.95;87.45
25945;SHT31;13742;49.306;8.636;2022-11-15T00:49:26;9.96;87.29
25945;SHT31;13742;49.306;8.636;2022-11-15T00:50:26;9.98;87.20
25945;SHT31;13742;49.306;8.636;2022-11-15T00:51:26;9.99;86.98
25945;SHT31;13742;49.306;8.636;2022-11-15T00:52:26;9.99;86.88
25945;SHT31;13742;49.306;8.636;2022-11-15T00:53:26;10.01;86.98
25945;SHT31;13742;49.306;8.636;2022-11-15T00:54:26;9.98;86.94
25945;SHT31;13742;49.306;8.636;2022-11-15T00:55:26;9.96;86.94
25945;SHT31;13742;49.306;8.636;2022-11-15T00:56:26;9.98;87.00
25945;SHT31;13742;49.306;8.636;2022-11-15T00:57:26;9.98;86.96
25945;SHT31;13742;49.306;8.636;2022-11-15T00:58:26;9.96;87.06
25945;SHT31;13742;49.306;8.636;2022-11-15T00:59:26;9.95;87.05
25945;SHT31;13742;49.306;8.636;2022-11-15T01:00:26;9.96;87.14
25945;SHT31;13742;49.306;8.636;2022-11-15T01:01:26;9.95;87.16
25945;SHT31;13742;49.306;8.636;2022-11-15T01:02:26;9.98;87.12
25945;SHT31;13742;49.306;8.636;2022-11-15T01:03:26;9.95;87.13
25945;SHT31;13742;49.306;8.636;2022-11-15T01:04:26;9.96;86.98
25945;SHT31;13742;49.306;8.636;2022-11-15T01:05:26;9.95;87.08
25945;SHT31;13742;49.306;8.636;2022-11-15T01:06:26;9.96;87.13
25945;SHT31;13742;49.306;8.636;2022-11-15T01:07:26;9.98;86.98
25945;SHT31;13742;49.306;8.636;2022-11-15T01:08:26;9.95;86.91
25945;SHT31;13742;49.306;8.636;2022-11-15T01:09:26;9.93;86.92
25945;SHT31;13742;49.306;8.636;2022-11-15T01:10:26;9.95;86.95
25945;SHT31;13742;49.306;8.636;2022-11-15T01:11:26;9.96;87.03
25945;SHT31;13742;49.306;8.636;2022-11-15T01:12:26;9.92;86.85
25945;SHT31;13742;49.306;8.636;2022-11-15T01:13:29;9.93;86.89
25945;SHT31;13742;49.306;8.636;2022-11-15T01:14:26;9.92;86.83
25945;SHT31;13742;49.306;8.636;2022-11-15T01:15:26;9.95;86.99
25945;SHT31;13742;49.306;8.636;2022-11-15T01:16:26;9.95;87.04
25945;SHT31;13742;49.306;8.636;2022-11-15T01:17:26;9.93;86.95
25945;SHT31;13742;49.306;8.636;2022-11-15T01:18:26;9.92;86.83
25945;SHT31;13742;49.306;8.636;2022-11-15T01:19:26;9.91;86.77
25945;SHT31;13742;49.306;8.636;2022-11-15T01:20:26;9.91;86.88
25945;SHT31;13742;49.306;8.636;2022-11-15T01:21:26;9.92;86.89
25945;SHT31;13742;49.306;8.636;2022-11-15T01:22:26;9.89;86.69
25945;SHT31;13742;49.306;8.636;2022-11-15T01:23:26;9.89;86.70
25945;SHT31;13742;49.306;8.636;2022-11-15T01:24:26;9.88;86.71
25945;SHT31;13742;49.306;8.636;2022-11-15T01:25:26;9.89;86.65
25945;SHT31;13742;49.306;8.636;2022-11-15T01:26:26;9.89;86.65
25945;SHT31;13742;49.306;8.636;2022-11-15T01:27:26;9.88;86.72
25945;SHT31;13742;49.306;8.636;2022-11-15T01:28:34;9.86;86.68
25945;SHT31;13742;49.306;8.636;2022-11-15T01:29:26;9.86;86.64
25945;SHT31;13742;49.306;8.636;2022-11-15T01:30:26;9.85;86.76
25945;SHT31;13742;49.306;8.636;2022-11-15T01:31:26;9.85;86.80
25945;SHT31;13742;49.306;8.636;2022-11-15T01:32:26;9.85;86.82
25945;SHT31;13742;49.306;8.636;2022-11-15T01:33:27;9.81;86.80
25945;SHT31;13742;49.306;8.636;2022-11-15T01:34:26;9.80;86.77
25945;SHT31;13742;49.306;8.636;2022-11-15T01:35:26;9.82;86.88
25945;SHT31;13742;49.306;8.636;2022-11-15T01:36:26;9.80;86.91
25945;SHT31;13742;49.306;8.636;2022-11-15T01:37:26;9.78;86.93
25945;SHT31;13742;49.306;8.636;2022-11-15T01:38:26;9.78;87.07
25945;SHT31;13742;49.306;8.636;2022-11-15T01:39:26;9.78;87.02
25945;SHT31;13742;49.306;8.636;2022-11-15T01:40:26;9.75;86.97
25945;SHT31;13742;49.306;8.636;2022-11-15T01:41:30;9.72;86.84
25945;SHT31;13742;49.306;8.636;2022-11-15T01:42:26;9.74;86.77
25945;SHT31;13742;49.306;8.636;2022-11-15T01:43:32;9.71;86.83
25945;SHT31;13742;49.306;8.636;2022-11-15T01:44:50;9.72;86.94
25945;SHT31;13742;49.306;8.636;2022-11-15T01:45:26;9.72;87.00
25945;SHT31;13742;49.306;8.636;2022-11-15T01:46:33;9.71;86.95
25945;SHT31;13742;49.306;8.636;2022-11-15T01:47:31;9.69;86.89
25945;SHT31;13742;49.306;8.636;2022-11-15T01:48:31;9.69;86.78
25945;SHT31;13742;49.306;8.636;2022-11-15T01:49:27;9.71;86.89
25945;SHT31;13742;49.306;8.636;2022-11-15T01:50:30;9.69;86.94
25945;SHT31;13742;49.306;8.636;2022-11-15T01:51:28;9.68;86.89
25945;SHT31;13742;49.306;8.636;2022-11-15T01:52:28;9.74;86.93
25945;SHT31;13742;49.306;8.636;2022-11-15T01:53:27;9.72;86.91
25945;SHT31;13742;49.306;8.636;2022-11-15T01:54:26;9.69;86.82
25945;SHT31;13742;49.306;8.636;2022-11-15T01:55:27;9.72;86.87
25945;SHT31;13742;49.306;8.636;2022-11-15T01:56:30;9.71;86.79
25945;SHT31;13742;49.306;8.636;2022-11-15T01:57:26;9.72;86.76
25945;SHT31;13742;49.306;8.636;2022-11-15T01:58:26;9.69;86.82
25945;SHT31;13742;49.306;8.636;2022-11-15T01:59:26;9.69;86.82
25945;SHT31;13742;49.306;8.636;2022-11-15T02:00:26;9.69;86.84
25945;SHT31;13742;49.306;8.636;2022-11-15T02:01:27;9.71;86.74
25945;SHT31;13742;49.306;8.636;2022-11-15T02:02:26;9.71;86.77
25945;SHT31;13742;49.306;8.636;2022-11-15T02:03:33;9.68;86.80
25945;SHT31;13742;49.306;8.636;2022-11-15T02:04:32;9.71;86.83
25945;SHT31;13742;49.306;8.636;2022-11-15T02:05:26;9.68;86.82
25945;SHT31;13742;49.306;8.636;2022-11-15T02:06:26;9.69;86.86
25945;SHT31;13742;49.306;8.636;2022-11-15T02:07:27;9.69;86.80
25945;SHT31;13742;49.306;8.636;2022-11-15T02:08:27;9.66;86.90
25945;SHT31;13742;49.306;8.636;2022-11-15T02:09:26;9.69;86.72
25945;SHT31;13742;49.306;8.636;2022-11-15T02:10:27;9.64;86.83
25945;SHT31;13742;49.306;8.636;2022-11-15T02:11:26;9.66;86.93
25945;SHT31;13742;49.306;8.636;2022-11-15T02:12:26;9.65;86.92
25945;SHT31;13742;49.306;8.636;2022-11-15T02:13:26;9.65;86.90
25945;SHT31;13742;49.306;8.636;2022-11-15T02:14:27;9.64;86.83
25945;SHT31;13742;49.306;8.636;2022-11-15T02:15:32;9.65;86.85
25945;SHT31;13742;49.306;8.636;2022-11-15T02:18:32;9.59;86.81
25945;SHT31;13742;49.306;8.636;2022-11-15T02:19:49;9.64;86.88
25945;SHT31;13742;49.306;8.636;2022-11-15T02:20:43;9.64;86.82
25945;SHT31;13742;49.306;8.636;2022-11-15T02:24:55;9.59;87.02
25945;SHT31;13742;49.306;8.636;2022-11-15T02:28:47;9.58;87.01
25945;SHT31;13742;49.306;8.636;2022-11-15T02:29:41;9.57;86.92
25945;SHT31;13742;49.306;8.636;2022-11-15T02:32:36;9.53;86.93
25945;SHT31;13742;49.306;8.636;2022-11-15T02:33:53;9.53;87.04
25945;SHT31;13742;49.306;8.636;2022-11-15T02:34:35;9.54;87.12
25945;SHT31;13742;49.306;8.636;2022-11-15T02:35:37;9.55;87.13
25945;SHT31;13742;49.306;8.636;2022-11-15T02:37:34;9.53;87.07
25945;SHT31;13742;49.306;8.636;2022-11-15T02:38:34;9.53;87.02
25945;SHT31;13742;49.306;8.636;2022-11-15T02:39:39;9.53;86.98
25945;SHT31;13742;49.306;8.636;2022-11-15T02:40:41;9.53;87.00
25945;SHT31;13742;49.306;8.636;2022-11-15T02:41:35;9.54;86.92
25945;SHT31;13742;49.306;8.636;2022-11-15T02:42:37;9.55;86.94
25945;SHT31;13742;49.306;8.636;2022-11-15T02:43:43;9.53;86.98
25945;SHT31;13742;49.306;8.636;2022-11-15T02:44:32;9.53;87.02
25945;SHT31;13742;49.306;8.636;2022-11-15T02:45:32;9.53;86.94
25945;SHT31;13742;49.306;8.636;2022-11-15T02:47:29;9.54;87.00
25945;SHT31;13742;49.306;8.636;2022-11-15T02:48:26;9.51;86.95
25945;SHT31;13742;49.306;8.636;2022-11-15T02:49:30;9.50;87.04
25945;SHT31;13742;49.306;8.636;2022-11-15T02:50:28;9.53;87.02
25945;SHT31;13742;49.306;8.636;2022-11-15T02:51:26;9.51;87.07
25945;SHT31;13742;49.306;8.636;2022-11-15T02:52:27;9.53;87.07
25945;SHT31;13742;49.306;8.636;2022-11-15T02:53:27;9.54;87.06
25945;SHT31;13742;49.306;8.636;2022-11-15T02:54:30;9.53;87.15
25945;SHT31;13742;49.306;8.636;2022-11-15T02:56:26;9.55;86.97
25945;SHT31;13742;49.306;8.636;2022-11-15T03:00:30;9.53;86.93
25945;SHT31;13742;49.306;8.636;2022-11-15T03:03:38;9.51;86.97
25945;SHT31;13742;49.306;8.636;2022-11-15T03:05:35;9.54;86.94
25945;SHT31;13742;49.306;8.636;2022-11-15T03:07:34;9.53;86.94
25945;SHT31;13742;49.306;8.636;2022-11-15T03:08:42;9.53;86.93
25945;SHT31;13742;49.306;8.636;2022-11-15T03:09:35;9.54;86.99
25945;SHT31;13742;49.306;8.636;2022-11-15T03:10:39;9.53;87.03
25945;SHT31;13742;49.306;8.636;2022-11-15T03:11:29;9.51;86.94
25945;SHT31;13742;49.306;8.636;2022-11-15T03:13:33;9.51;87.03
25945;SHT31;13742;49.306;8.636;2022-11-15T03:14:32;9.51;87.03
25945;SHT31;13742;49.306;8.636;2022-11-15T03:15:32;9.50;87.04
25945;SHT31;13742;49.306;8.636;2022-11-15T03:16:34;9.53;87.02
25945;SHT31;13742;49.306;8.636;2022-11-15T03:17:51;9.53;87.08
25945;SHT31;13742;49.306;8.636;2022-11-15T03:18:35;9.51;86.99
25945;SHT31;13742;49.306;8.636;2022-11-15T03:20:26;9.51;86.99
25945;SHT31;13742;49.306;8.636;2022-11-15T03:21:28;9.51;87.06
25945;SHT31;13742;49.306;8.636;2022-11-15T03:22:28;9.53;87.03
25945;SHT31;13742;49.306;8.636;2022-11-15T03:23:28;9.53;87.03
25945;SHT31;13742;49.306;8.636;2022-11-15T03:24:28;9.55;87.04
25945;SHT31;13742;49.306;8.636;2022-11-15T03:25:28;9.53;86.98
25945;SHT31;13742;49.306;8.636;2022-11-15T03:26:27;9.51;86.94
25945;SHT31;13742;49.306;8.636;2022-11-15T03:27:30;9.50;86.81
25945;SHT31;13742;49.306;8.636;2022-11-15T03:28:36;9.53;87.01
25945;SHT31;13742;49.306;8.636;2022-11-15T03:29:32;9.51;86.83
25945;SHT31;13742;49.306;8.636;2022-11-15T03:30:27;9.51;86.83
25945;SHT31;13742;49.306;8.636;2022-11-15T03:31:35;9.51;86.86
25945;SHT31;13742;49.306;8.636;2022-11-15T03:32:31;9.51;86.92
25945;SHT31;13742;49.306;8.636;2022-11-15T03:33:27;9.53;86.95
25945;SHT31;13742;49.306;8.636;2022-11-15T03:34:31;9.54;86.99
25945;SHT31;13742;49.306;8.636;2022-11-15T03:35:28;9.53;87.03
25945;SHT31;13742;49.306;8.636;2022-11-15T03:36:26;9.53;86.87
25945;SHT31;13742;49.306;8.636;2022-11-15T03:37:34;9.55;86.89
25945;SHT31;13742;49.306;8.636;2022-11-15T03:38:26;9.55;86.94
25945;SHT31;13742;49.306;8.636;2022-11-15T03:39:27;9.58;86.77
25945;SHT31;13742;49.306;8.636;2022-11-15T03:40:53;9.58;86.83
25945;SHT31;13742;49.306;8.636;2022-11-15T03:42:33;9.59;86.68
25945;SHT31;13742;49.306;8.636;2022-11-15T03:44:35;9.61;86.62
25945;SHT31;13742;49.306;8.636;2022-11-15T03:45:32;9.61;86.61
25945;SHT31;13742;49.306;8.636;2022-11-15T03:46:32;9.62;86.58
25945;SHT31;13742;49.306;8.636;2022-11-15T03:47:33;9.65;86.59
25945;SHT31;13742;49.306;8.636;2022-11-15T03:48:30;9.65;86.59
25945;SHT31;13742;49.306;8.636;2022-11-15T03:49:31;9.66;86.56
25945;SHT31;13742;49.306;8.636;2022-11-15T03:50:26;9.66;86.51
25945;SHT31;13742;49.306;8.636;2022-11-15T03:51:26;9.68;86.44
25945;SHT31;13742;49.306;8.636;2022-11-15T03:52:31;9.68;86.40
25945;SHT31;13742;49.306;8.636;2022-11-15T03:53:27;9.69;86.51
25945;SHT31;13742;49.306;8.636;2022-11-15T03:54:26;9.72;86.48
25945;SHT31;13742;49.306;8.636;2022-11-15T03:55:26;9.71;86.55
25945;SHT31;13742;49.306;8.636;2022-11-15T03:56:26;9.69;86.41
25945;SHT31;13742;49.306;8.636;2022-11-15T03:57:26;9.71;86.39
25945;SHT31;13742;49.306;8.636;2022-11-15T03:58:26;9.72;86.36
25945;SHT31;13742;49.306;8.636;2022-11-15T03:59:26;9.72;86.42
25945;SHT31;13742;49.306;8.636;2022-11-15T04:00:27;9.76;86.33
25945;SHT31;13742;49.306;8.636;2022-11-15T04:01:26;9.75;86.29
25945;SHT31;13742;49.306;8.636;2022-11-15T04:02:26;9.76;86.21
25945;SHT31;13742;49.306;8.636;2022-11-15T04:03:26;9.81;86.25
25945;SHT31;13742;49.306;8.636;2022-11-15T04:04:26;9.78;86.12
25945;SHT31;13742;49.306;8.636;2022-11-15T04:05:26;9.76;86.11
25945;SHT31;13742;49.306;8.636;2022-11-15T04:06:26;9.81;86.11
25945;SHT31;13742;49.306;8.636;2022-11-15T04:07:26;9.80;86.04
25945;SHT31;13742;49.306;8.636;2022-11-15T04:08:26;9.80;86.14
25945;SHT31;13742;49.306;8.636;2022-11-15T04:09:26;9.80;86.15
25945;SHT31;13742;49.306;8.636;2022-11-15T04:10:26;9.80;86.10
25945;SHT31;13742;49.306;8.636;2022-11-15T04:11:26;9.84;86.32
25945;SHT31;13742;49.306;8.636;2022-11-15T04:12:33;9.82;86.27
25945;SHT31;13742;49.306;8.636;2022-11-15T04:13:26;9.84;86.27
25945;SHT31;13742;49.306;8.636;2022-11-15T04:14:26;9.82;86.15
25945;SHT31;13742;49.306;8.636;2022-11-15T04:15:26;9.81;86.12
25945;SHT31;13742;49.306;8.636;2022-11-15T04:16:26;9.82;86.01
25945;SHT31;13742;49.306;8.636;2022-11-15T04:17:26;9.86;85.89
25945;SHT31;13742;49.306;8.636;2022-11-15T04:18:26;9.86;85.85
25945;SHT31;13742;49.306;8.636;2022-11-15T04:19:31;9.85;85.87
25945;SHT31;13742;49.306;8.636;2022-11-15T04:20:31;9.88;85.92
25945;SHT31;13742;49.306;8.636;2022-11-15T04:21:31;9.88;85.90
25945;SHT31;13742;49.306;8.636;2022-11-15T04:22:31;9.88;85.78
25945;SHT31;13742;49.306;8.636;2022-11-15T04:23:31;9.88;85.91
25945;SHT31;13742;49.306;8.636;2022-11-15T04:24:26;9.89;85.87
25945;SHT31;13742;49.306;8.636;2022-11-15T04:25:26;9.89;85.82
25945;SHT31;13742;49.306;8.636;2022-11-15T04:26:26;9.89;85.72
25945;SHT31;13742;49.306;8.636;2022-11-15T04:27:26;9.91;85.99
25945;SHT31;13742;49.306;8.636;2022-11-15T04:28:26;9.92;85.91
25945;SHT31;13742;49.306;8.636;2022-11-15T04:29:31;9.93;85.74
25945;SHT31;13742;49.306;8.636;2022-11-15T04:30:26;9.91;85.73
25945;SHT31;13742;49.306;8.636;2022-11-15T04:31:26;9.91;85.78
25945;SHT31;13742;49.306;8.636;2022-11-15T04:32:26;9.92;85.64
25945;SHT31;13742;49.306;8.636;2022-11-15T04:33:26;9.92;85.67
25945;SHT31;13742;49.306;8.636;2022-11-15T04:34:26;9.95;85.75
25945;SHT31;13742;49.306;8.636;2022-11-15T04:35:26;9.93;85.84
25945;SHT31;13742;49.306;8.636;2022-11-15T04:36:31;9.95;85.81
25945;SHT31;13742;49.306;8.636;2022-11-15T04:37:26;9.93;85.82
25945;SHT31;13742;49.306;8.636;2022-11-15T04:38:26;9.95;85.76
25945;SHT31;13742;49.306;8.636;2022-11-15T04:39:26;9.93;85.86
25945;SHT31;13742;49.306;8.636;2022-11-15T04:40:26;9.96;85.91
25945;SHT31;13742;49.306;8.636;2022-11-15T04:41:26;9.95;85.80
25945;SHT31;13742;49.306;8.636;2022-11-15T04:42:26;9.95;85.80
25945;SHT31;13742;49.306;8.636;2022-11-15T04:43:26;9.95;85.84
25945;SHT31;13742;49.306;8.636;2022-11-15T04:44:26;9.98;85.77
25945;SHT31;13742;49.306;8.636;2022-11-15T04:45:26;9.95;85.91
25945;SHT31;13742;49.306;8.636;2022-11-15T04:46:26;9.96;85.74
25945;SHT31;13742;49.306;8.636;2022-11-15T04:47:27;9.93;85.86
25945;SHT31;13742;49.306;8.636;2022-11-15T04:48:26;9.93;85.88
25945;SHT31;13742;49.306;8.636;2022-11-15T04:49:26;9.92;85.88
25945;SHT31;13742;49.306;8.636;2022-11-15T04:50:26;9.98;85.85
25945;SHT31;13742;49.306;8.636;2022-11-15T04:51:26;9.95;85.95
25945;SHT31;13742;49.306;8.636;2022-11-15T04:52:26;9.96;85.88
25945;SHT31;13742;49.306;8.636;2022-11-15T04:53:26;9.93;85.88
25945;SHT31;13742;49.306;8.636;2022-11-15T04:54:26;9.96;85.89
25945;SHT31;13742;49.306;8.636;2022-11-15T04:55:26;9.96;85.96
25945;SHT31;13742;49.306;8.636;2022-11-15T04:56:26;9.96;86.07
25945;SHT31;13742;49.306;8.636;2022-11-15T04:57:26;9.95;85.96
25945;SHT31;13742;49.306;8.636;2022-11-15T04:58:26;9.96;85.84
25945;SHT31;13742;49.306;8.636;2022-11-15T04:59:26;9.93;85.78
25945;SHT31;13742;49.306;8.636;2022-11-15T05:00:27;9.96;85.58
25945;SHT31;13742;49.306;8.636;2022-11-15T05:01:26;9.96;85.65
25945;SHT31;13742;49.306;8.636;2022-11-15T05:02:41;9.96;85.77
25945;SHT31;13742;49.306;8.636;2022-11-15T05:03:31;9.96;85.90
25945;SHT31;13742;49.306;8.636;2022-11-15T05:04:26;9.93;85.94
25945;SHT31;13742;49.306;8.636;2022-11-15T05:05:26;9.96;86.00
25945;SHT31;13742;49.306;8.636;2022-11-15T05:06:26;9.95;85.93
25945;SHT31;13742;49.306;8.636;2022-11-15T05:07:26;9.93;86.05
25945;SHT31;13742;49.306;8.636;2022-11-15T05:08:26;9.95;85.97
25945;SHT31;13742;49.306;8.636;2022-11-15T05:09:26;9.96;86.00
25945;SHT31;13742;49.306;8.636;2022-11-15T05:10:26;9.95;86.08
25945;SHT31;13742;49.306;8.636;2022-11-15T05:11:27;9.93;86.02
25945;SHT31;13742;49.306;8.636;2022-11-15T05:12:26;9.92;86.03
25945;SHT31;13742;49.306;8.636;2022-11-15T05:13:26;9.93;86.04
25945;SHT31;13742;49.306;8.636;2022-11-15T05:14:26;9.92;85.99
25945;SHT31;13742;49.306;8.636;2022-11-15T05:15:26;9.92;86.00
25945;SHT31;13742;49.306;8.636;2022-11-15T05:16:26;9.91;85.91
25945;SHT31;13742;49.306;8.636;2022-11-15T05:17:26;9.92;85.94
25945;SHT31;13742;49.306;8.636;2022-11-15T05:18:26;9.93;85.93
25945;SHT31;13742;49.306;8.636;2022-11-15T05:19:26;9.92;85.77
25945;SHT31;13742;49.306;8.636;2022-11-15T05:20:26;9.95;85.73
25945;SHT31;13742;49.306;8.636;2022-11-15T05:21:26;9.93;85.76
25945;SHT31;13742;49.306;8.636;2022-11-15T05:22:27;9.93;85.73
25945;SHT31;13742;49.306;8.636;2022-11-15T05:23:26;9.92;85.77
25945;SHT31;13742;49.306;8.636;2022-11-15T05:24:26;9.93;85.80
25945;SHT31;13742;49.306;8.636;2022-11-15T05:25:26;9.93;85.79
25945;SHT31;13742;49.306;8.636;2022-11-15T05:26:27;9.93;85.81
25945;SHT31;13742;49.306;8.636;2022-11-15T05:27:26;9.93;85.58
25945;SHT31;13742;49.306;8.636;2022-11-15T05:28:26;9.93;85.76
25945;SHT31;13742;49.306;8.636;2022-11-15T05:29:26;9.93;85.65
25945;SHT31;13742;49.306;8.636;2022-11-15T05:30:26;9.92;85.60
25945;SHT31;13742;49.306;8.636;2022-11-15T05:31:26;9.95;85.64
25945;SHT31;13742;49.306;8.636;2022-11-15T05:32:26;9.93;85.57
25945;SHT31;13742;49.306;8.636;2022-11-15T05:33:26;9.95;85.57
25945;SHT31;13742;49.306;8.636;2022-11-15T05:34:26;9.95;85.61
25945;SHT31;13742;49.306;8.636;2022-11-15T05:35:36;9.93;85.58
25945;SHT31;13742;49.306;8.636;2022-11-15T05:36:33;9.93;85.70
25945;SHT31;13742;49.306;8.636;2022-11-15T05:37:26;9.93;85.68
25945;SHT31;13742;49.306;8.636;2022-11-15T05:38:26;9.95;85.81
25945;SHT31;13742;49.306;8.636;2022-11-15T05:39:26;9.93;85.78
25945;SHT31;13742;49.306;8.636;2022-11-15T05:40:27;9.93;85.73
25945;SHT31;13742;49.306;8.636;2022-11-15T05:41:34;9.93;85.86
25945;SHT31;13742;49.306;8.636;2022-11-15T05:42:26;9.92;85.69
25945;SHT31;13742;49.306;8.636;2022-11-15T05:43:26;9.93;85.71
25945;SHT31;13742;49.306;8.636;2022-11-15T05:44:26;9.92;85.68
25945;SHT31;13742;49.306;8.636;2022-11-15T05:45:26;9.93;85.76
25945;SHT31;13742;49.306;8.636;2022-11-15T05:46:26;9.96;85.86
25945;SHT31;13742;49.306;8.636;2022-11-15T05:47:27;9.95;85.89
25945;SHT31;13742;49.306;8.636;2022-11-15T05:48:26;9.92;85.87
25945;SHT31;13742;49.306;8.636;2022-11-15T05:49:30;9.91;85.82
25945;SHT31;13742;49.306;8.636;2022-11-15T05:50:26;9.92;85.75
25945;SHT31;13742;49.306;8.636;2022-11-15T05:51:28;9.93;85.85
25945;SHT31;13742;49.306;8.636;2022-11-15T05:52:30;9.93;85.80
25945;SHT31;13742;49.306;8.636;2022-11-15T05:53:26;9.95;85.80
25945;SHT31;13742;49.306;8.636;2022-11-15T05:54:26;9.95;85.82
25945;SHT31;13742;49.306;8.636;2022-11-15T05:55:26;9.92;85.82
25945;SHT31;13742;49.306;8.636;2022-11-15T05:56:26;9.92;85.77
25945;SHT31;13742;49.306;8.636;2022-11-15T05:57:26;9.92;85.89
25945;SHT31;13742;49.306;8.636;2022-11-15T05:58:26;9.93;85.88
25945;SHT31;13742;49.306;8.636;2022-11-15T05:59:29;9.93;85.96
25945;SHT31;13742;49.306;8.636;2022-11-15T06:00:26;9.93;85.89
25945;SHT31;13742;49.306;8.636;2022-11-15T06:01:26;9.95;85.85
25945;SHT31;13742;49.306;8.636;2022-11-15T06:02:26;9.92;85.91
25945;SHT31;13742;49.306;8.636;2022-11-15T06:03:26;9.93;85.91
25945;SHT31;13742;49.306;8.636;2022-11-15T06:04:26;9.93;85.91
25945;SHT31;13742;49.306;8.636;2022-11-15T06:05:26;9.93;85.85
25945;SHT31;13742;49.306;8.636;2022-11-15T06:06:27;9.92;85.94
25945;SHT31;13742;49.306;8.636;2022-11-15T06:07:26;9.93;85.94
25945;SHT31;13742;49.306;8.636;2022-11-15T06:08:26;9.92;85.87
25945;SHT31;13742;49.306;8.636;2022-11-15T06:09:26;9.93;85.89
25945;SHT31;13742;49.306;8.636;2022-11-15T06:10:26;9.95;85.96
25945;SHT31;13742;49.306;8.636;2022-11-15T06:11:26;9.92;85.86
25945;SHT31;13742;49.306;8.636;2022-11-15T06:12:26;9.92;85.94
25945;SHT31;13742;49.306;8.636;2022-11-15T06:13:26;9.93;85.89
25945;SHT31;13742;49.306;8.636;2022-11-15T06:14:26;9.93;85.93
25945;SHT31;13742;49.306;8.636;2022-11-15T06:15:26;9.92;85.91
25945;SHT31;13742;49.306;8.636;2022-11-15T06:16:26;9.93;86.02
25945;SHT31;13742;49.306;8.636;2022-11-15T06:17:26;9.93;86.00
25945;SHT31;13742;49.306;8.636;2022-11-15T06:18:26;9.92;86.00
25945;SHT31;13742;49.306;8.636;2022-11-15T06:19:26;9.91;85.99
25945;SHT31;13742;49.306;8.636;2022-11-15T06:20:27;9.92;85.99
25945;SHT31;13742;49.306;8.636;2022-11-15T06:21:27;9.92;85.99
25945;SHT31;13742;49.306;8.636;2022-11-15T06:22:26;9.91;85.98
25945;SHT31;13742;49.306;8.636;2022-11-15T06:23:26;9.92;85.95
25945;SHT31;13742;49.306;8.636;2022-11-15T06:24:26;9.92;85.91
25945;SHT31;13742;49.306;8.636;2022-11-15T06:25:27;9.91;85.92
25945;SHT31;13742;49.306;8.636;2022-11-15T06:26:26;9.91;85.91
25945;SHT31;13742;49.306;8.636;2022-11-15T06:27:26;9.89;85.92
25945;SHT31;13742;49.306;8.636;2022-11-15T06:28:30;9.89;86.00
25945;SHT31;13742;49.306;8.636;2022-11-15T06:29:26;9.88;85.99
25945;SHT31;13742;49.306;8.636;2022-11-15T06:30:26;9.88;85.96
25945;SHT31;13742;49.306;8.636;2022-11-15T06:31:26;9.88;86.01
25945;SHT31;13742;49.306;8.636;2022-11-15T06:32:26;9.86;85.97
25945;SHT31;13742;49.306;8.636;2022-11-15T06:33:26;9.86;86.06
25945;SHT31;13742;49.306;8.636;2022-11-15T06:34:26;9.86;86.06
25945;SHT31;13742;49.306;8.636;2022-11-15T06:35:26;9.86;86.05
25945;SHT31;13742;49.306;8.636;2022-11-15T06:36:26;9.84;86.02
25945;SHT31;13742;49.306;8.636;2022-11-15T06:37:26;9.84;86.11
25945;SHT31;13742;49.306;8.636;2022-11-15T06:38:26;9.84;86.14
25945;SHT31;13742;49.306;8.636;2022-11-15T06:39:26;9.85;86.06
25945;SHT31;13742;49.306;8.636;2022-11-15T06:40:26;9.85;86.09
25945;SHT31;13742;49.306;8.636;2022-11-15T06:41:26;9.85;86.15
25945;SHT31;13742;49.306;8.636;2022-11-15T06:42:26;9.85;86.19
25945;SHT31;13742;49.306;8.636;2022-11-15T06:43:26;9.85;86.17
25945;SHT31;13742;49.306;8.636;2022-11-15T06:44:26;9.82;86.21
25945;SHT31;13742;49.306;8.636;2022-11-15T06:45:26;9.86;86.31
25945;SHT31;13742;49.306;8.636;2022-11-15T06:46:26;9.82;86.32
25945;SHT31;13742;49.306;8.636;2022-11-15T06:47:26;9.85;86.31
25945;SHT31;13742;49.306;8.636;2022-11-15T06:48:26;9.85;86.40